Terminal Aerodrome Forecast
Issued by NWS Austin/San Antonio, TX

Home | Current Version | Previous Version | Text Only | Print | Product List | Glossary On
Versions: 1 2 3 4 5 6 7 8 9 10 11 12 13 14 15 16 17 18
000
FTUS44 KEWX 042118 AAA
TAFAUS
TAF AMD
KAUS 042118Z 0421/0524 14009KT P6SM SCT070 SCT150
     FM050200 15005KT P6SM SCT100
     FM051000 17005KT P6SM BKN015
     FM051600 18010KT P6SM SCT050=

USA.gov is the U.S. government's official web portal to all federal, state and local government web resources and services.